createdAt,value
2023-01-03T00:04:48.952Z,98208.41
2023-01-03T00:09:54.205Z,98218.75
2023-01-03T00:14:57.470Z,98217.31
2023-01-03T00:20:01.108Z,98214.97
2023-01-03T00:25:06.449Z,98210.53
2023-01-03T00:30:10.447Z,98206.63
2023-01-03T00:35:13.591Z,98222.31
2023-01-03T00:40:18.269Z,98217.81
2023-01-03T00:45:24.394Z,98223.25
2023-01-03T00:50:28.801Z,98234.66
2023-01-03T00:55:35.733Z,98252.91
2023-01-03T01:00:39.125Z,98256.06
2023-01-03T01:05:42.203Z,98259.03
2023-01-03T01:11:01.979Z,98266.63
2023-01-03T01:16:06.827Z,98268.75
2023-01-03T01:21:12.453Z,98273.88
2023-01-03T01:26:18.957Z,98267.50
2023-01-03T01:31:24.558Z,98283.88
2023-01-03T01:36:29.702Z,98286.47
2023-01-03T01:41:54.215Z,98290.31
2023-01-03T01:46:57.950Z,98296.78
2023-01-03T01:52:01.430Z,98289.41
2023-01-03T01:57:05.860Z,98295.63
2023-01-03T02:02:09.929Z,98304.34
2023-01-03T02:07:13.225Z,98303.00
2023-01-03T02:12:45.310Z,98304.25
2023-01-03T02:17:58.344Z,98306.25
2023-01-03T02:23:31.260Z,98293.53
2023-01-03T02:29:03.443Z,98307.81
2023-01-03T02:34:21.443Z,98312.16
2023-01-03T02:39:29.834Z,98316.34
2023-01-03T02:44:37.255Z,98323.78
2023-01-03T02:49:45.732Z,98321.69
2023-01-03T02:54:52.418Z,98320.06
2023-01-03T02:59:59.777Z,98325.84
2023-01-03T03:05:09.950Z,98329.13
2023-01-03T03:10:30.486Z,98320.13
2023-01-03T03:15:41.054Z,98316.38
2023-01-03T03:21:02.704Z,98320.13
2023-01-03T03:26:10.252Z,98326.66
2023-01-03T03:31:17.648Z,98324.91
2023-01-03T03:36:29.414Z,98332.53
2023-01-03T03:41:58.183Z,98335.44
2023-01-03T03:47:06.445Z,98341.41
2023-01-03T03:52:15.413Z,98352.59
2023-01-03T03:57:27.088Z,98355.25
2023-01-03T04:02:32.395Z,98367.94
2023-01-03T04:07:37.779Z,98381.81
2023-01-03T04:12:41.362Z,98372.09
2023-01-03T04:17:45.012Z,98378.47
2023-01-03T04:22:49.547Z,98378.19
2023-01-03T04:27:52.587Z,98372.81
2023-01-03T04:32:56.521Z,98372.00
2023-01-03T04:38:01.451Z,98373.00
2023-01-03T04:43:21.073Z,98375.78
2023-01-03T04:48:24.738Z,98379.59
2023-01-03T04:53:29.563Z,98380.88
2023-01-03T04:58:32.776Z,98397.53
2023-01-03T05:03:37.843Z,98389.66
2023-01-03T05:08:42.448Z,98400.53
2023-01-03T05:13:45.695Z,98417.31
2023-01-03T05:18:53.464Z,98411.28
2023-01-03T05:24:15.276Z,98417.72
2023-01-03T05:29:21.466Z,98425.22
2023-01-03T05:34:24.634Z,98420.53
2023-01-03T05:39:29.189Z,98421.19
2023-01-03T05:44:35.188Z,98418.69
2023-01-03T05:49:38.980Z,98428.78
2023-01-03T05:54:44.009Z,98425.56
2023-01-03T05:59:47.106Z,98426.44
2023-01-03T06:04:50.466Z,98430.25
2023-01-03T06:09:55.351Z,98440.09
2023-01-03T06:14:58.886Z,98447.97
2023-01-03T06:20:02.145Z,98445.97
2023-01-03T06:25:07.335Z,98446.59
2023-01-03T06:30:12.058Z,98441.09
2023-01-03T06:35:15.275Z,98452.78
2023-01-03T06:40:20.173Z,98450.91
2023-01-03T06:45:40.869Z,98451.19
2023-01-03T06:51:03.129Z,98458.97
2023-01-03T06:56:08.644Z,98463.00
2023-01-03T07:01:15.314Z,98457.66
2023-01-03T07:06:18.597Z,98471.38
2023-01-03T07:11:23.767Z,98472.47
2023-01-03T07:16:28.961Z,98481.72
2023-01-03T07:21:33.907Z,98482.47
2023-01-03T07:26:38.456Z,98500.75
2023-01-03T07:31:44.490Z,98499.09
2023-01-03T07:36:49.109Z,98509.72
2023-01-03T07:42:11.813Z,98511.22
2023-01-03T07:47:15.655Z,98519.66
2023-01-03T07:52:19.278Z,98518.94
2023-01-03T07:57:23.769Z,98525.84
2023-01-03T08:02:27.147Z,98525.84
2023-01-03T08:07:30.385Z,98531.06
2023-01-03T08:12:52.241Z,98545.63
2023-01-03T08:17:55.471Z,98550.25
2023-01-03T08:23:00.979Z,98545.63
2023-01-03T08:28:07.121Z,98563.56
2023-01-03T08:33:13.251Z,98570.66
2023-01-03T08:38:20.494Z,98560.72
2023-01-03T08:43:26.155Z,98564.00
2023-01-03T08:48:29.327Z,98552.59
2023-01-03T08:53:32.516Z,98558.63
2023-01-03T08:58:36.973Z,98556.69
2023-01-03T09:03:40.350Z,98558.69
2023-01-03T09:08:43.649Z,98556.66
2023-01-03T09:13:48.170Z,98563.69
2023-01-03T09:18:51.569Z,98577.03
2023-01-03T09:23:54.815Z,98563.38
2023-01-03T09:28:59.666Z,98564.59
2023-01-03T09:34:05.315Z,98560.72
2023-01-03T09:39:08.653Z,98561.03
2023-01-03T09:44:13.226Z,98568.84
2023-01-03T09:49:16.428Z,98559.97
2023-01-03T09:54:44.453Z,98560.59
2023-01-03T10:00:06.635Z,98566.06
2023-01-03T10:05:28.304Z,98563.06
2023-01-03T10:10:39.965Z,98560.69
2023-01-03T10:15:53.283Z,98568.38
2023-01-03T10:21:05.464Z,98557.50
2023-01-03T10:26:12.566Z,98559.34
2023-01-03T10:31:31.528Z,98560.03
2023-01-03T10:36:35.153Z,98555.53
2023-01-03T10:41:44.774Z,98548.66
2023-01-03T10:46:54.596Z,98551.28
2023-01-03T10:52:02.234Z,98543.31
2023-01-03T10:57:07.524Z,98545.88
2023-01-03T11:02:19.762Z,98545.69
2023-01-03T11:07:23.346Z,98545.47
2023-01-03T11:12:31.404Z,98536.69
2023-01-03T11:17:36.047Z,98534.06
2023-01-03T11:22:43.542Z,98524.34
2023-01-03T11:28:11.927Z,98532.66
2023-01-03T11:33:46.160Z,98521.59
2023-01-03T11:39:06.430Z,98522.13
2023-01-03T11:44:32.210Z,98523.84
2023-01-03T11:49:50.373Z,98521.59
2023-01-03T11:55:15.888Z,98527.16
2023-01-03T12:00:29.652Z,98514.28
2023-01-03T12:05:44.890Z,98521.38
2023-01-03T12:10:55.900Z,98513.97
2023-01-03T12:16:05.527Z,98505.25
2023-01-03T12:21:15.873Z,98520.00
2023-01-03T12:26:19.675Z,98518.28
2023-01-03T12:31:32.084Z,98517.50
2023-01-03T12:36:43.457Z,98504.69
2023-01-03T12:41:53.921Z,98494.38
2023-01-03T12:46:57.738Z,98496.59
2023-01-03T12:52:02.849Z,98501.59
2023-01-03T12:57:33.703Z,98496.34
2023-01-03T13:02:48.872Z,98503.22
2023-01-03T13:08:04.770Z,98502.97
2023-01-03T13:13:08.732Z,98505.25
2023-01-03T13:18:35.405Z,98500.31
2023-01-03T13:23:59.016Z,98508.25
2023-01-03T13:29:35.978Z,98506.81
2023-01-03T13:34:39.301Z,98499.22
2023-01-03T13:39:58.189Z,98492.84
2023-01-03T13:45:37.037Z,98485.63
2023-01-03T13:50:40.210Z,98488.72
2023-01-03T13:55:54.507Z,98479.09
2023-01-03T14:01:05.529Z,98488.44
2023-01-03T14:06:43.135Z,98488.84
2023-01-03T14:12:14.788Z,98486.38
2023-01-03T14:17:22.378Z,98490.81
2023-01-03T14:22:35.103Z,98485.34
2023-01-03T14:27:41.937Z,98494.53
2023-01-03T14:32:45.583Z,98498.25
2023-01-03T14:37:49.091Z,98508.19
2023-01-03T14:42:53.961Z,98517.81
2023-01-03T14:47:57.160Z,98513.94
2023-01-03T14:53:02.532Z,98521.84
2023-01-03T14:58:34.647Z,98529.50
2023-01-03T15:03:42.721Z,98533.88
2023-01-03T15:08:47.828Z,98539.72
2023-01-03T15:13:56.739Z,98539.91
2023-01-03T15:19:05.429Z,98542.72
2023-01-03T15:24:16.718Z,98546.81
2023-01-03T15:29:23.845Z,98547.66
2023-01-03T15:34:43.358Z,98546.72
2023-01-03T15:39:49.499Z,98549.78
2023-01-03T15:44:54.249Z,98555.63
2023-01-03T15:50:01.261Z,98553.47
2023-01-03T15:55:05.081Z,98547.03
2023-01-03T16:00:18.009Z,98562.44
2023-01-03T16:05:23.386Z,98553.41
2023-01-03T16:10:27.552Z,98556.47
2023-01-03T16:15:32.420Z,98561.38
2023-01-03T16:20:35.669Z,98558.84
2023-01-03T16:25:38.923Z,98558.28
2023-01-03T16:30:43.756Z,98553.59
2023-01-03T16:35:47.255Z,98558.31
2023-01-03T16:40:50.650Z,98554.84
2023-01-03T16:45:58.906Z,98566.56
2023-01-03T16:51:02.250Z,98564.41
2023-01-03T16:56:07.608Z,98556.94
2023-01-03T17:01:13.780Z,98551.81
2023-01-03T17:06:33.459Z,98551.38
2023-01-03T17:11:40.851Z,98558.44
2023-01-03T17:16:46.173Z,98565.69
2023-01-03T17:21:51.499Z,98562.06
2023-01-03T17:27:03.125Z,98557.38
2023-01-03T17:32:17.938Z,98559.69
2023-01-03T17:37:23.021Z,98570.91
2023-01-03T17:42:29.274Z,98561.31
2023-01-03T17:47:52.025Z,98568.91
2023-01-03T17:52:56.383Z,98567.72
2023-01-03T17:58:02.809Z,98554.69
2023-01-03T18:03:07.994Z,98545.13
2023-01-03T18:08:19.309Z,98546.78
2023-01-03T18:13:25.276Z,98545.56
2023-01-03T18:18:32.150Z,98537.75
2023-01-03T18:23:38.605Z,98543.41
2023-01-03T18:28:41.760Z,98537.94
2023-01-03T18:33:46.429Z,98544.22
2023-01-03T18:38:49.629Z,98542.50
2023-01-03T18:43:53.122Z,98533.81
2023-01-03T18:48:57.817Z,98530.72
2023-01-03T18:54:01.135Z,98542.09
2023-01-03T18:59:09.005Z,98541.56
2023-01-03T19:04:13.674Z,98538.50
2023-01-03T19:09:22.068Z,98531.69
2023-01-03T19:14:25.273Z,98540.09
2023-01-03T19:19:30.133Z,98537.47
2023-01-03T19:24:39.373Z,98532.53
2023-01-03T19:29:43.831Z,98542.59
2023-01-03T19:34:48.764Z,98536.28
2023-01-03T19:39:51.966Z,98535.56
2023-01-03T19:44:56.044Z,98536.00
2023-01-03T19:50:11.513Z,98530.50
2023-01-03T19:55:15.459Z,98529.22
2023-01-03T20:00:22.047Z,98523.91
2023-01-03T20:05:30.683Z,98521.63
2023-01-03T20:10:37.733Z,98515.91
2023-01-03T20:15:43.981Z,98508.75
2023-01-03T20:20:49.770Z,98516.38
2023-01-03T20:25:53.755Z,98515.09
2023-01-03T20:30:58.157Z,98513.69
2023-01-03T20:36:14.378Z,98503.28
2023-01-03T20:41:21.424Z,98502.25
2023-01-03T20:46:25.232Z,98492.06
2023-01-03T20:51:30.907Z,98492.34
2023-01-03T20:56:34.795Z,98481.00
2023-01-03T21:01:39.085Z,98473.44
2023-01-03T21:06:46.192Z,98473.16
2023-01-03T21:11:50.197Z,98462.94
2023-01-03T21:16:55.031Z,98451.28
2023-01-03T21:22:00.232Z,98453.69
2023-01-03T21:27:03.987Z,98445.38
2023-01-03T21:32:07.792Z,98445.41
2023-01-03T21:37:12.607Z,98439.19
2023-01-03T21:42:34.812Z,98443.38
2023-01-03T21:47:38.739Z,98442.78
2023-01-03T21:52:43.665Z,98444.47
2023-01-03T21:57:47.375Z,98440.06
2023-01-03T22:03:08.688Z,98423.06
2023-01-03T22:08:13.306Z,98421.28
2023-01-03T22:13:16.525Z,98410.22
2023-01-03T22:18:19.750Z,98388.56
2023-01-03T22:23:24.287Z,98384.94
2023-01-03T22:28:27.537Z,98390.63
2023-01-03T22:33:30.800Z,98380.59
2023-01-03T22:38:37.001Z,98394.91
2023-01-03T22:43:40.523Z,98385.13
2023-01-03T22:48:44.970Z,98380.84
2023-01-03T22:53:49.633Z,98383.69
2023-01-03T22:58:52.846Z,98386.06
2023-01-03T23:03:56.788Z,98394.84
2023-01-03T23:09:02.447Z,98397.06
2023-01-03T23:14:08.396Z,98405.41
2023-01-03T23:19:13.785Z,98398.56
2023-01-03T23:24:21.174Z,98375.28
2023-01-03T23:29:24.363Z,98372.66
2023-01-03T23:34:27.620Z,98366.13
2023-01-03T23:39:32.234Z,98387.59
2023-01-03T23:44:37.054Z,98361.97
2023-01-03T23:49:40.898Z,98370.41
2023-01-03T23:54:46.645Z,98362.53
2023-01-03T23:59:50.492Z,98349.81
